createdAt,value
2017-02-16T00:00:53.160Z,1028.66
2017-02-16T00:02:02.190Z,1028.63
2017-02-16T00:03:11.210Z,1028.64
2017-02-16T00:04:20.264Z,1028.62
2017-02-16T00:05:29.270Z,1028.62
2017-02-16T00:06:38.283Z,1028.68
2017-02-16T00:07:47.315Z,1028.64
2017-02-16T00:08:56.347Z,1028.62
2017-02-16T00:10:05.377Z,1028.61
2017-02-16T00:11:14.411Z,1028.63
2017-02-16T00:12:23.429Z,1028.61
2017-02-16T00:13:32.481Z,1028.61
2017-02-16T00:14:41.535Z,1028.62
2017-02-16T00:15:50.575Z,1028.56
2017-02-16T00:16:59.601Z,1028.57
2017-02-16T00:18:08.661Z,1028.51
2017-02-16T00:19:17.687Z,1028.52
2017-02-16T00:20:26.716Z,1028.52
2017-02-16T00:21:35.758Z,1028.52
2017-02-16T00:22:45.196Z,1028.5
2017-02-16T00:23:54.636Z,1028.51
2017-02-16T00:25:04.087Z,1028.48
2017-02-16T00:26:13.121Z,1028.44
2017-02-16T00:27:22.143Z,1028.44
2017-02-16T00:28:31.168Z,1028.42
2017-02-16T00:29:40.601Z,1028.42
2017-02-16T00:30:49.621Z,1028.41
2017-02-16T00:31:58.645Z,1028.43
2017-02-16T00:33:07.659Z,1028.44
2017-02-16T00:34:16.687Z,1028.39
2017-02-16T00:35:25.724Z,1028.39
2017-02-16T00:36:34.747Z,1028.37
2017-02-16T00:37:43.781Z,1028.32
2017-02-16T00:38:52.794Z,1028.33
2017-02-16T00:40:01.826Z,1028.32
2017-02-16T00:41:10.831Z,1028.29
2017-02-16T00:42:19.872Z,1028.29
2017-02-16T00:43:28.878Z,1028.31
2017-02-16T00:44:37.904Z,1028.29
2017-02-16T00:45:46.925Z,1028.24
2017-02-16T00:46:55.968Z,1028.28
2017-02-16T00:48:05.001Z,1028.27
2017-02-16T00:49:14.450Z,1028.32
2017-02-16T00:50:23.464Z,1028.35
2017-02-16T00:51:32.507Z,1028.34
2017-02-16T00:52:41.936Z,1028.37
2017-02-16T00:53:51.380Z,1028.35
2017-02-16T00:55:00.417Z,1028.34
2017-02-16T00:56:09.856Z,1028.36
2017-02-16T00:57:18.900Z,1028.34
2017-02-16T00:58:27.944Z,1028.31
2017-02-16T00:59:36.979Z,1028.32
2017-02-16T01:00:45.990Z,1028.33
2017-02-16T01:01:55.007Z,1028.32
2017-02-16T01:03:04.439Z,1028.31
2017-02-16T01:04:13.448Z,1028.27
2017-02-16T01:05:22.486Z,1028.3
2017-02-16T01:06:31.511Z,1028.29
2017-02-16T01:07:40.549Z,1028.28
2017-02-16T01:08:49.596Z,1028.25
2017-02-16T01:09:58.628Z,1028.26
2017-02-16T01:11:08.106Z,1028.28
2017-02-16T01:12:17.152Z,1028.31
2017-02-16T01:13:26.176Z,1028.34
2017-02-16T01:14:35.225Z,1028.35
2017-02-16T01:15:44.275Z,1028.37
2017-02-16T01:16:53.737Z,1028.34
2017-02-16T01:18:03.577Z,1028.33
2017-02-16T01:19:12.603Z,1028.36
2017-02-16T01:20:21.627Z,1028.35
2017-02-16T01:21:30.640Z,1028.31
2017-02-16T01:22:39.693Z,1028.3
2017-02-16T01:23:49.156Z,1028.33
2017-02-16T01:24:58.193Z,1028.33
2017-02-16T01:26:07.236Z,1028.36
2017-02-16T01:27:16.267Z,1028.39
2017-02-16T01:28:25.298Z,1028.41
2017-02-16T01:29:34.752Z,1028.36
2017-02-16T01:30:43.781Z,1028.36
2017-02-16T01:31:53.200Z,1028.3
2017-02-16T01:33:02.656Z,1028.32
2017-02-16T01:34:11.677Z,1028.29
2017-02-16T01:35:20.706Z,1028.29
2017-02-16T01:36:29.732Z,1028.23
2017-02-16T01:37:38.796Z,1028.27
2017-02-16T01:38:48.233Z,1028.31
2017-02-16T01:39:57.241Z,1028.32
2017-02-16T01:41:06.717Z,1028.32
2017-02-16T01:42:15.758Z,1028.35
2017-02-16T01:43:24.776Z,1028.35
2017-02-16T01:44:33.788Z,1028.4
2017-02-16T01:45:42.838Z,1028.39
2017-02-16T01:46:51.871Z,1028.39
2017-02-16T01:48:00.903Z,1028.36
2017-02-16T01:49:09.934Z,1028.37
2017-02-16T01:50:18.951Z,1028.32
2017-02-16T01:51:28.384Z,1028.37
2017-02-16T01:52:37.414Z,1028.36
2017-02-16T01:53:46.418Z,1028.37
2017-02-16T01:54:55.888Z,1028.35
2017-02-16T01:56:04.914Z,1028.36
2017-02-16T01:57:13.974Z,1028.31
2017-02-16T01:58:22.993Z,1028.27
2017-02-16T01:59:32.035Z,1028.29
2017-02-16T02:00:41.055Z,1028.3
2017-02-16T02:01:50.071Z,1028.3
2017-02-16T02:02:59.072Z,1028.3
2017-02-16T02:04:08.090Z,1028.25
2017-02-16T02:05:17.117Z,1028.25
2017-02-16T02:06:26.152Z,1028.25
2017-02-16T02:07:35.189Z,1028.25
2017-02-16T02:08:44.214Z,1028.2
2017-02-16T02:09:53.227Z,1028.28
2017-02-16T02:11:02.245Z,1028.24
2017-02-16T02:12:11.264Z,1028.26
2017-02-16T02:13:20.283Z,1028.21
2017-02-16T02:14:29.315Z,1028.17
2017-02-16T02:15:38.328Z,1028.16
2017-02-16T02:16:47.355Z,1028.12
2017-02-16T02:17:56.376Z,1028.15
2017-02-16T02:19:05.383Z,1028.16
2017-02-16T02:20:14.430Z,1028.13
2017-02-16T02:21:23.469Z,1028.13
2017-02-16T02:22:32.493Z,1028.12
2017-02-16T02:23:41.942Z,1028.12
2017-02-16T02:24:50.969Z,1028.14
2017-02-16T02:25:59.991Z,1028.14
2017-02-16T02:27:09.029Z,1028.11
2017-02-16T02:28:18.461Z,1028.11
2017-02-16T02:29:27.474Z,1028.05
2017-02-16T02:30:36.518Z,1028.09
2017-02-16T02:31:45.964Z,1028.07
2017-02-16T02:32:55.404Z,1028.07
2017-02-16T02:34:04.435Z,1028.03
2017-02-16T02:35:13.463Z,1028.03
2017-02-16T02:36:22.501Z,1028.06
2017-02-16T02:37:31.531Z,1028.06
2017-02-16T02:38:40.957Z,1028.07
2017-02-16T02:39:49.978Z,1028.05
2017-02-16T02:40:59.046Z,1028.03
2017-02-16T02:42:08.059Z,1028.05
2017-02-16T02:43:17.070Z,1028.02
2017-02-16T02:44:26.119Z,1028.05
2017-02-16T02:45:35.138Z,1028
2017-02-16T02:46:44.150Z,1027.99
2017-02-16T02:47:53.168Z,1028.01
2017-02-16T02:49:02.188Z,1027.99
2017-02-16T02:50:11.203Z,1028
2017-02-16T02:51:20.232Z,1027.95
2017-02-16T02:52:29.244Z,1027.95
2017-02-16T02:53:38.263Z,1027.96
2017-02-16T02:54:47.280Z,1027.95
2017-02-16T02:55:56.308Z,1027.92
2017-02-16T02:57:05.318Z,1027.9
2017-02-16T02:58:14.352Z,1027.94
2017-02-16T02:59:23.381Z,1027.93
2017-02-16T03:00:32.823Z,1027.92
2017-02-16T03:01:41.842Z,1027.95
2017-02-16T03:02:50.860Z,1027.91
2017-02-16T03:03:59.881Z,1027.91
2017-02-16T03:05:08.901Z,1027.88
2017-02-16T03:06:17.930Z,1027.88
2017-02-16T03:07:26.945Z,1027.89
2017-02-16T03:08:35.981Z,1027.95
2017-02-16T03:09:45.026Z,1027.93
2017-02-16T03:10:54.070Z,1027.92
2017-02-16T03:12:03.105Z,1027.93
2017-02-16T03:13:12.144Z,1027.94
2017-02-16T03:14:21.554Z,1027.93
2017-02-16T03:15:30.561Z,1027.9
2017-02-16T03:16:39.578Z,1027.93
2017-02-16T03:17:48.626Z,1027.93
2017-02-16T03:18:58.066Z,1027.94
2017-02-16T03:20:07.122Z,1027.92
2017-02-16T03:21:16.154Z,1027.89
2017-02-16T03:22:25.181Z,1027.92
2017-02-16T03:23:34.185Z,1027.97
2017-02-16T03:24:43.193Z,1027.91
2017-02-16T03:25:52.220Z,1027.92
2017-02-16T03:27:01.230Z,1027.89
2017-02-16T03:28:10.267Z,1027.9
2017-02-16T03:29:19.285Z,1027.89
2017-02-16T03:30:28.306Z,1027.87
2017-02-16T03:31:37.313Z,1027.88
2017-02-16T03:32:46.347Z,1027.91
2017-02-16T03:33:55.786Z,1027.9
2017-02-16T03:35:04.812Z,1027.91
2017-02-16T03:36:13.857Z,1027.9
2017-02-16T03:37:22.871Z,1027.9
2017-02-16T03:38:31.910Z,1027.84
2017-02-16T03:39:40.932Z,1027.86
2017-02-16T03:40:49.980Z,1027.85
2017-02-16T03:41:58.989Z,1027.84
2017-02-16T03:43:08.004Z,1027.81
2017-02-16T03:44:17.024Z,1027.82
2017-02-16T03:45:26.033Z,1027.85
2017-02-16T03:46:35.094Z,1027.82
2017-02-16T03:47:44.154Z,1027.81
2017-02-16T03:48:53.207Z,1027.83
2017-02-16T03:50:02.225Z,1027.82
2017-02-16T03:51:11.241Z,1027.86
2017-02-16T03:52:20.243Z,1027.79
2017-02-16T03:53:29.262Z,1027.78
2017-02-16T03:54:38.293Z,1027.8
2017-02-16T03:55:47.729Z,1027.82
2017-02-16T03:56:56.747Z,1027.84
2017-02-16T03:58:05.781Z,1027.84
2017-02-16T03:59:14.820Z,1027.85
2017-02-16T04:00:23.836Z,1027.86
2017-02-16T04:01:32.868Z,1027.87
2017-02-16T04:02:41.900Z,1027.87
2017-02-16T04:03:50.924Z,1027.92
2017-02-16T04:04:59.946Z,1027.88
2017-02-16T04:06:08.975Z,1027.82
2017-02-16T04:07:17.989Z,1027.83
2017-02-16T04:08:27.019Z,1027.83
2017-02-16T04:09:36.042Z,1027.85
2017-02-16T04:10:45.059Z,1027.82
2017-02-16T04:11:54.073Z,1027.87
2017-02-16T04:13:03.107Z,1027.89
2017-02-16T04:14:12.142Z,1027.86
2017-02-16T04:15:21.175Z,1027.76
2017-02-16T04:16:30.193Z,1027.81
2017-02-16T04:17:39.240Z,1027.84
2017-02-16T04:18:48.683Z,1027.81
2017-02-16T04:19:57.697Z,1027.78
2017-02-16T04:21:06.727Z,1027.77
2017-02-16T04:22:15.758Z,1027.79
2017-02-16T04:23:24.782Z,1027.81
2017-02-16T04:24:33.793Z,1027.75
2017-02-16T04:25:42.834Z,1027.75
2017-02-16T04:26:51.854Z,1027.77
2017-02-16T04:28:00.877Z,1027.77
2017-02-16T04:29:09.882Z,1027.75
2017-02-16T04:30:18.900Z,1027.72
2017-02-16T04:31:27.922Z,1027.74
2017-02-16T04:32:36.942Z,1027.68
2017-02-16T04:33:45.976Z,1027.7
2017-02-16T04:34:55.407Z,1027.69
2017-02-16T04:36:04.424Z,1027.67
2017-02-16T04:37:13.442Z,1027.69
2017-02-16T04:38:22.475Z,1027.69
2017-02-16T04:39:31.509Z,1027.7
2017-02-16T04:40:40.514Z,1027.67
2017-02-16T04:41:49.543Z,1027.68
2017-02-16T04:43:00.720Z,1027.63
2017-02-16T04:44:09.751Z,1027.66
2017-02-16T04:45:18.779Z,1027.63
2017-02-16T04:46:27.804Z,1027.58
2017-02-16T04:47:36.829Z,1027.48
2017-02-16T04:48:45.876Z,1027.53
2017-02-16T04:49:54.899Z,1027.56
2017-02-16T04:51:03.934Z,1027.57
2017-02-16T04:52:12.953Z,1027.6
2017-02-16T04:53:22.368Z,1027.52
2017-02-16T04:54:31.391Z,1027.56
2017-02-16T04:55:40.426Z,1027.54
2017-02-16T04:56:49.441Z,1027.5
2017-02-16T04:57:58.447Z,1027.5
2017-02-16T04:59:07.477Z,1027.53
2017-02-16T05:00:16.501Z,1027.49
2017-02-16T05:01:25.521Z,1027.5
2017-02-16T05:02:35.000Z,1027.49
2017-02-16T05:03:44.038Z,1027.49
2017-02-16T05:04:53.039Z,1027.53
2017-02-16T05:06:02.050Z,1027.5
2017-02-16T05:07:11.078Z,1027.47
2017-02-16T05:08:20.524Z,1027.51
2017-02-16T05:09:29.560Z,1027.44
2017-02-16T05:10:38.600Z,1027.42
2017-02-16T05:11:47.622Z,1027.4
2017-02-16T05:12:56.642Z,1027.42
2017-02-16T05:14:05.653Z,1027.54
2017-02-16T05:15:14.680Z,1027.59
2017-02-16T05:16:24.130Z,1027.63
2017-02-16T05:17:33.182Z,1027.61
2017-02-16T05:18:42.205Z,1027.58
2017-02-16T05:19:51.249Z,1027.61
2017-02-16T05:21:00.264Z,1027.63
2017-02-16T05:22:09.269Z,1027.62
2017-02-16T05:23:18.310Z,1027.6
2017-02-16T05:24:27.344Z,1027.57
2017-02-16T05:25:36.364Z,1027.56
2017-02-16T05:26:45.403Z,1027.63
2017-02-16T05:27:54.447Z,1027.66
2017-02-16T05:29:03.456Z,1027.65
2017-02-16T05:30:12.549Z,1027.65
2017-02-16T05:31:21.663Z,1027.63
2017-02-16T05:32:30.726Z,1027.63
2017-02-16T05:33:39.752Z,1027.62
2017-02-16T05:34:48.777Z,1027.6
2017-02-16T05:35:57.801Z,1027.62
2017-02-16T05:37:06.830Z,1027.64
2017-02-16T05:38:15.859Z,1027.56
2017-02-16T05:39:24.902Z,1027.51
2017-02-16T05:40:33.915Z,1027.53
2017-02-16T05:41:43.360Z,1027.52
2017-02-16T05:42:52.363Z,1027.53
2017-02-16T05:44:01.404Z,1027.55
2017-02-16T05:45:10.435Z,1027.53
2017-02-16T05:46:19.441Z,1027.53
2017-02-16T05:47:28.457Z,1027.5
2017-02-16T05:48:37.480Z,1027.5
2017-02-16T05:49:46.484Z,1027.5
2017-02-16T05:50:55.512Z,1027.47
2017-02-16T05:52:04.538Z,1027.53
2017-02-16T05:53:13.570Z,1027.5
2017-02-16T05:54:22.586Z,1027.44
2017-02-16T05:55:32.017Z,1027.5
2017-02-16T05:56:41.027Z,1027.48
2017-02-16T05:57:50.045Z,1027.49
2017-02-16T05:58:59.064Z,1027.47
2017-02-16T06:00:08.085Z,1027.43
2017-02-16T06:01:17.543Z,1027.49
2017-02-16T06:02:26.571Z,1027.46
2017-02-16T06:03:36.016Z,1027.47
2017-02-16T06:04:45.046Z,1027.5
2017-02-16T06:05:54.067Z,1027.46
2017-02-16T06:07:03.107Z,1027.48
2017-02-16T06:08:12.140Z,1027.51
2017-02-16T06:09:21.163Z,1027.57
2017-02-16T06:10:30.185Z,1027.52
2017-02-16T06:11:39.220Z,1027.52
2017-02-16T06:12:48.249Z,1027.44
2017-02-16T06:13:57.268Z,1027.42
2017-02-16T06:15:06.296Z,1027.41
2017-02-16T06:16:15.316Z,1027.45
2017-02-16T06:17:24.339Z,1027.44
2017-02-16T06:18:33.352Z,1027.47
2017-02-16T06:19:42.386Z,1027.42
2017-02-16T06:20:51.413Z,1027.4
2017-02-16T06:22:00.432Z,1027.41
2017-02-16T06:23:09.456Z,1027.39
2017-02-16T06:24:18.491Z,1027.38
2017-02-16T06:25:27.540Z,1027.37
2017-02-16T06:26:36.613Z,1027.34
2017-02-16T06:27:45.624Z,1027.38
2017-02-16T06:28:54.643Z,1027.36
2017-02-16T06:30:04.074Z,1027.39
2017-02-16T06:31:13.111Z,1027.39
2017-02-16T06:32:22.127Z,1027.37
2017-02-16T06:33:31.591Z,1027.37
2017-02-16T06:34:40.597Z,1027.39
2017-02-16T06:35:49.608Z,1027.39
2017-02-16T06:36:58.622Z,1027.43
2017-02-16T06:38:08.077Z,1027.4
2017-02-16T06:39:17.528Z,1027.43
2017-02-16T06:40:26.979Z,1027.45
2017-02-16T06:41:35.999Z,1027.43
2017-02-16T06:42:45.455Z,1027.45
2017-02-16T06:43:54.491Z,1027.47
2017-02-16T06:45:03.532Z,1027.45
2017-02-16T06:46:12.552Z,1027.47
2017-02-16T06:47:21.998Z,1027.48
2017-02-16T06:48:31.018Z,1027.48
2017-02-16T06:49:40.074Z,1027.5
2017-02-16T06:50:49.109Z,1027.46
2017-02-16T06:51:58.142Z,1027.46
2017-02-16T06:53:07.158Z,1027.48
2017-02-16T06:54:16.186Z,1027.54
2017-02-16T06:55:25.211Z,1027.53
2017-02-16T06:56:34.261Z,1027.57
2017-02-16T06:57:43.274Z,1027.52
2017-02-16T06:58:52.297Z,1027.58
2017-02-16T07:00:01.756Z,1027.53
2017-02-16T07:01:10.810Z,1027.54
2017-02-16T07:02:19.855Z,1027.58
2017-02-16T07:03:28.869Z,1027.57
2017-02-16T07:04:37.907Z,1027.56
2017-02-16T07:05:46.926Z,1027.55
2017-02-16T07:06:55.979Z,1027.57
2017-02-16T07:08:04.995Z,1027.6
2017-02-16T07:09:14.028Z,1027.59
2017-02-16T07:10:23.044Z,1027.54
2017-02-16T07:11:32.063Z,1027.55
2017-02-16T07:12:41.083Z,1027.51
2017-02-16T07:13:50.522Z,1027.55
2017-02-16T07:14:59.548Z,1027.55
2017-02-16T07:16:08.618Z,1027.56
2017-02-16T07:17:17.657Z,1027.57
2017-02-16T07:18:26.695Z,1027.55
2017-02-16T07:19:35.741Z,1027.54
2017-02-16T07:20:44.776Z,1027.57
2017-02-16T07:21:53.820Z,1027.49
2017-02-16T07:23:02.859Z,1027.55
2017-02-16T07:24:12.700Z,1027.56
2017-02-16T07:25:21.744Z,1027.53
2017-02-16T07:26:30.761Z,1027.54
2017-02-16T07:27:39.791Z,1027.52
2017-02-16T07:28:48.811Z,1027.52
2017-02-16T07:29:57.836Z,1027.53
2017-02-16T07:31:06.885Z,1027.51
2017-02-16T07:32:15.910Z,1027.49
2017-02-16T07:33:24.927Z,1027.45
2017-02-16T07:34:33.957Z,1027.45
2017-02-16T07:35:42.984Z,1027.51
2017-02-16T07:36:51.999Z,1027.5
2017-02-16T07:38:01.060Z,1027.51
2017-02-16T07:39:10.090Z,1027.52
2017-02-16T07:40:19.117Z,1027.49
2017-02-16T07:41:28.157Z,1027.51
2017-02-16T07:42:37.195Z,1027.47
2017-02-16T07:43:46.643Z,1027.47
2017-02-16T07:44:55.669Z,1027.44
2017-02-16T07:46:04.706Z,1027.44
2017-02-16T07:47:13.730Z,1027.45
2017-02-16T07:48:22.772Z,1027.42
2017-02-16T07:49:31.800Z,1027.4
2017-02-16T07:50:40.856Z,1027.41
2017-02-16T07:51:49.906Z,1027.42
2017-02-16T07:52:58.944Z,1027.4
2017-02-16T07:54:07.968Z,1027.4
2017-02-16T07:55:16.987Z,1027.42
2017-02-16T07:56:26.023Z,1027.37
2017-02-16T07:57:35.036Z,1027.42
2017-02-16T07:58:44.075Z,1027.38
2017-02-16T07:59:53.105Z,1027.4
2017-02-16T08:01:02.129Z,1027.37
2017-02-16T08:02:11.173Z,1027.31
2017-02-16T08:03:20.189Z,1027.3
2017-02-16T08:04:29.221Z,1027.26
2017-02-16T08:05:38.248Z,1027.28
2017-02-16T08:06:47.284Z,1027.3
2017-02-16T08:07:56.308Z,1027.33
2017-02-16T08:09:05.327Z,1027.27
2017-02-16T08:10:14.346Z,1027.25
2017-02-16T08:11:23.363Z,1027.23
2017-02-16T08:12:32.395Z,1027.24
2017-02-16T08:13:41.415Z,1027.21
2017-02-16T08:14:50.453Z,1027.19
2017-02-16T08:15:59.459Z,1027.21
2017-02-16T08:17:08.490Z,1027.25
2017-02-16T08:18:17.515Z,1027.23
2017-02-16T08:19:26.961Z,1027.25
2017-02-16T08:20:36.410Z,1027.27
2017-02-16T08:21:45.436Z,1027.26
2017-02-16T08:22:54.474Z,1027.25
2017-02-16T08:24:03.510Z,1027.24
2017-02-16T08:25:12.539Z,1027.27
2017-02-16T08:26:21.972Z,1027.27
2017-02-16T08:27:31.015Z,1027.27
2017-02-16T08:28:40.065Z,1027.25
2017-02-16T08:29:49.088Z,1027.27
2017-02-16T08:30:58.134Z,1027.23
2017-02-16T08:32:07.186Z,1027.22
2017-02-16T08:33:16.209Z,1027.17
2017-02-16T08:34:25.234Z,1027.18
2017-02-16T08:35:34.243Z,1027.17
2017-02-16T08:36:43.320Z,1027.13
2017-02-16T08:37:52.359Z,1027.13
2017-02-16T08:39:01.435Z,1027.12
2017-02-16T08:40:10.885Z,1027.15
2017-02-16T08:41:19.897Z,1027.13
2017-02-16T08:42:29.360Z,1027.08
2017-02-16T08:43:38.803Z,1027.1
2017-02-16T08:44:47.825Z,1027.08
2017-02-16T08:45:56.864Z,1027.09
2017-02-16T08:47:05.886Z,1027.06
2017-02-16T08:48:15.335Z,1027.09
2017-02-16T08:49:24.357Z,1027.09
2017-02-16T08:50:33.412Z,1027.14
2017-02-16T08:51:42.449Z,1027.12
2017-02-16T08:52:51.480Z,1027.09
2017-02-16T08:54:00.519Z,1027.12
2017-02-16T08:55:09.941Z,1027.06
2017-02-16T08:56:18.965Z,1027.1
2017-02-16T08:57:27.997Z,1027.11
2017-02-16T08:58:37.031Z,1027.1
2017-02-16T08:59:46.060Z,1027.12
2017-02-16T09:00:55.099Z,1027.14
2017-02-16T09:02:04.137Z,1027.1
2017-02-16T09:03:13.193Z,1027.12
2017-02-16T09:04:22.231Z,1027.08
2017-02-16T09:05:31.256Z,1027.08
2017-02-16T09:06:40.272Z,1027.08
2017-02-16T09:07:49.294Z,1027.09
2017-02-16T09:08:58.308Z,1027.11
2017-02-16T09:10:07.333Z,1027.07
2017-02-16T09:11:16.372Z,1027.01
2017-02-16T09:12:25.418Z,1027.02
2017-02-16T09:13:34.427Z,1027.02
2017-02-16T09:14:43.869Z,1027.01
2017-02-16T09:15:53.350Z,1027.08
2017-02-16T09:17:02.391Z,1027.08
2017-02-16T09:18:11.418Z,1027.08
2017-02-16T09:19:20.498Z,1027.14
2017-02-16T09:20:29.520Z,1027.12
2017-02-16T09:21:38.536Z,1027.14
2017-02-16T09:22:47.559Z,1027.15
2017-02-16T09:23:56.576Z,1027.15
2017-02-16T09:25:05.607Z,1027.14
2017-02-16T09:26:14.629Z,1027.13
2017-02-16T09:27:23.669Z,1027.15
2017-02-16T09:28:32.714Z,1027.18
2017-02-16T09:29:41.742Z,1027.14
2017-02-16T09:30:50.785Z,1027.16
2017-02-16T09:31:59.816Z,1027.16
2017-02-16T09:33:08.833Z,1027.18
2017-02-16T09:34:17.840Z,1027.16
2017-02-16T09:35:26.866Z,1027.19
2017-02-16T09:36:35.908Z,1027.17
2017-02-16T09:37:44.944Z,1027.19
2017-02-16T09:38:53.975Z,1027.19
2017-02-16T09:40:03.018Z,1027.22
2017-02-16T09:41:12.042Z,1027.18
2017-02-16T09:42:21.060Z,1027.13
2017-02-16T09:43:30.105Z,1027.12
2017-02-16T09:44:39.123Z,1027.09
2017-02-16T09:45:48.162Z,1027.11
2017-02-16T09:46:57.181Z,1027.08
2017-02-16T09:48:06.215Z,1027.09
2017-02-16T09:49:15.240Z,1027.09
2017-02-16T09:50:24.272Z,1027.02
2017-02-16T09:51:33.307Z,1027.07
2017-02-16T09:52:42.341Z,1026.98
2017-02-16T09:53:51.385Z,1026.94
2017-02-16T09:55:00.410Z,1026.92
2017-02-16T09:56:09.422Z,1026.96
2017-02-16T09:57:18.453Z,1026.95
2017-02-16T09:58:27.499Z,1026.91
2017-02-16T09:59:36.536Z,1026.89
2017-02-16T10:00:45.551Z,1026.93
2017-02-16T10:01:54.578Z,1026.93
2017-02-16T10:03:03.600Z,1026.92
2017-02-16T10:04:12.625Z,1026.92
2017-02-16T10:05:22.077Z,1026.85
2017-02-16T10:06:31.091Z,1026.85
2017-02-16T10:07:40.122Z,1026.83
2017-02-16T10:08:49.139Z,1026.81
2017-02-16T10:09:58.188Z,1026.84
2017-02-16T10:11:07.210Z,1026.84
2017-02-16T10:12:16.279Z,1026.88
2017-02-16T10:13:25.308Z,1026.84
2017-02-16T10:14:34.349Z,1026.83
2017-02-16T10:15:43.806Z,1026.84
2017-02-16T10:16:52.826Z,1026.81
2017-02-16T10:18:01.858Z,1026.82
2017-02-16T10:19:10.886Z,1026.83
2017-02-16T10:20:19.917Z,1026.83
2017-02-16T10:21:29.309Z,1026.87
2017-02-16T10:23:09.791Z,1026.86
2017-02-16T10:24:18.825Z,1026.79
2017-02-16T10:25:27.867Z,1026.81
2017-02-16T10:26:36.899Z,1026.78
2017-02-16T10:27:46.326Z,1026.79
2017-02-16T10:28:55.763Z,1026.79
2017-02-16T10:30:04.799Z,1026.77
2017-02-16T10:31:13.842Z,1026.74
2017-02-16T10:32:22.857Z,1026.67
2017-02-16T10:33:31.873Z,1026.77
2017-02-16T10:34:40.915Z,1026.75
2017-02-16T10:35:49.959Z,1026.73
2017-02-16T10:36:58.983Z,1026.79
2017-02-16T10:38:08.025Z,1026.76
2017-02-16T10:39:17.033Z,1026.69
2017-02-16T10:40:26.065Z,1026.71
2017-02-16T10:41:35.096Z,1026.71
2017-02-16T10:42:44.110Z,1026.72
2017-02-16T10:43:53.549Z,1026.7
2017-02-16T10:45:02.574Z,1026.75
2017-02-16T10:46:11.645Z,1026.74
2017-02-16T10:47:20.692Z,1026.73
2017-02-16T10:48:29.718Z,1026.71
2017-02-16T10:49:38.734Z,1026.68
2017-02-16T10:50:47.754Z,1026.69
2017-02-16T10:51:56.791Z,1026.66
2017-02-16T10:53:05.806Z,1026.67
2017-02-16T10:54:14.837Z,1026.7
2017-02-16T10:55:23.855Z,1026.68
2017-02-16T10:56:32.896Z,1026.66
2017-02-16T10:57:41.906Z,1026.65
2017-02-16T10:58:51.366Z,1026.67
2017-02-16T11:00:00.381Z,1026.64
2017-02-16T11:01:09.418Z,1026.64
2017-02-16T11:02:18.454Z,1026.65
2017-02-16T11:03:28.303Z,1026.6
2017-02-16T11:04:37.318Z,1026.63
2017-02-16T11:05:46.353Z,1026.58
2017-02-16T11:06:55.395Z,1026.55
2017-02-16T11:08:04.433Z,1026.48
2017-02-16T11:09:13.482Z,1026.47
2017-02-16T11:10:22.513Z,1026.41
2017-02-16T11:11:31.551Z,1026.4
2017-02-16T11:12:40.576Z,1026.37
2017-02-16T11:13:49.619Z,1026.34
2017-02-16T11:14:58.631Z,1026.33
2017-02-16T11:16:07.657Z,1026.32
2017-02-16T11:17:16.681Z,1026.33
2017-02-16T11:18:25.732Z,1026.25
2017-02-16T11:19:34.755Z,1026.26
2017-02-16T11:20:43.793Z,1026.26
2017-02-16T11:21:52.795Z,1026.26
2017-02-16T11:23:01.835Z,1026.29
2017-02-16T11:24:10.865Z,1026.28
2017-02-16T11:25:20.301Z,1026.27
2017-02-16T11:26:29.334Z,1026.29
2017-02-16T11:27:38.794Z,1026.25
2017-02-16T11:28:48.232Z,1026.24
2017-02-16T11:29:57.261Z,1026.25
2017-02-16T11:31:06.719Z,1026.24
2017-02-16T11:32:15.735Z,1026.18
2017-02-16T11:33:24.759Z,1026.12
2017-02-16T11:34:33.792Z,1026.13
2017-02-16T11:35:42.815Z,1026.11
2017-02-16T11:36:51.846Z,1026.13
2017-02-16T11:38:00.883Z,1026.13
2017-02-16T11:39:09.895Z,1026.11
2017-02-16T11:40:19.341Z,1026.1
2017-02-16T11:41:28.384Z,1026.08
2017-02-16T11:42:37.408Z,1026.04
2017-02-16T11:43:46.433Z,1026.04
2017-02-16T11:44:55.468Z,1026.04
2017-02-16T11:46:04.492Z,1026.05
2017-02-16T11:47:13.507Z,1026.04
2017-02-16T11:48:22.562Z,1026.08
2017-02-16T11:49:31.616Z,1026.05
2017-02-16T11:50:40.641Z,1026.04
2017-02-16T11:51:49.657Z,1025.99
2017-02-16T11:52:58.687Z,1025.95
2017-02-16T11:54:07.725Z,1025.92
2017-02-16T11:55:16.772Z,1025.92
2017-02-16T11:56:26.223Z,1025.93
2017-02-16T11:57:35.285Z,1025.94
2017-02-16T11:58:45.134Z,1025.95
2017-02-16T11:59:54.158Z,1025.92
2017-02-16T12:01:03.173Z,1025.89
2017-02-16T12:02:12.231Z,1025.91
2017-02-16T12:03:21.671Z,1025.9
2017-02-16T12:04:30.688Z,1025.88
2017-02-16T12:05:39.737Z,1025.83
2017-02-16T12:06:48.768Z,1025.8
2017-02-16T12:07:57.836Z,1025.82
2017-02-16T12:09:07.278Z,1025.83
2017-02-16T12:10:16.333Z,1025.78
2017-02-16T12:11:25.353Z,1025.78
2017-02-16T12:12:34.398Z,1025.76
2017-02-16T12:13:43.427Z,1025.74
2017-02-16T12:14:52.437Z,1025.75
2017-02-16T12:16:01.452Z,1025.73
2017-02-16T12:17:10.485Z,1025.71
2017-02-16T12:18:19.489Z,1025.71
2017-02-16T12:19:28.500Z,1025.71
2017-02-16T12:20:37.549Z,1025.71
2017-02-16T12:21:46.585Z,1025.67
2017-02-16T12:22:55.624Z,1025.69
2017-02-16T12:24:04.679Z,1025.74
2017-02-16T12:25:13.696Z,1025.68
2017-02-16T12:26:22.720Z,1025.68
2017-02-16T12:27:31.758Z,1025.67
2017-02-16T12:28:40.796Z,1025.67
2017-02-16T12:29:49.842Z,1025.61
2017-02-16T12:30:58.867Z,1025.62
2017-02-16T12:32:07.965Z,1025.61
2017-02-16T12:33:17.008Z,1025.56
2017-02-16T12:34:26.018Z,1025.56
2017-02-16T12:35:35.048Z,1025.58
2017-02-16T12:36:44.072Z,1025.54
2017-02-16T12:37:53.111Z,1025.54
2017-02-16T12:39:02.545Z,1025.49
2017-02-16T12:40:11.591Z,1025.5
2017-02-16T12:41:20.593Z,1025.46
2017-02-16T12:42:29.643Z,1025.48
2017-02-16T12:43:39.076Z,1025.44
2017-02-16T12:44:48.103Z,1025.44
2017-02-16T12:45:57.139Z,1025.38
2017-02-16T12:47:06.603Z,1025.38
2017-02-16T12:48:15.620Z,1025.37
2017-02-16T12:49:24.660Z,1025.36
2017-02-16T12:50:33.677Z,1025.32
2017-02-16T12:51:42.696Z,1025.35
2017-02-16T12:52:51.731Z,1025.35
2017-02-16T12:54:01.161Z,1025.31
2017-02-16T12:55:10.165Z,1025.3
2017-02-16T12:56:19.182Z,1025.28
2017-02-16T12:57:28.220Z,1025.27
2017-02-16T12:58:38.102Z,1025.23
2017-02-16T12:59:47.119Z,1025.2
2017-02-16T13:00:56.154Z,1025.2
2017-02-16T13:02:05.589Z,1025.17
2017-02-16T13:03:14.596Z,1025.12
2017-02-16T13:04:24.019Z,1025.11
2017-02-16T13:05:33.032Z,1025.1
2017-02-16T13:06:42.457Z,1025.05
2017-02-16T13:07:51.463Z,1025.06
2017-02-16T13:09:00.461Z,1025.06
2017-02-16T13:10:09.488Z,1025.03
2017-02-16T13:11:18.506Z,1025
2017-02-16T13:12:27.510Z,1025.02
2017-02-16T13:13:36.523Z,1024.99
2017-02-16T13:14:45.537Z,1024.96
2017-02-16T13:15:54.564Z,1025
2017-02-16T13:17:03.578Z,1024.96
2017-02-16T13:18:12.582Z,1024.91
2017-02-16T13:19:21.591Z,1024.92
2017-02-16T13:20:30.597Z,1024.93
2017-02-16T13:21:39.631Z,1024.97
2017-02-16T13:22:48.627Z,1024.97
2017-02-16T13:23:57.657Z,1024.9
2017-02-16T13:25:06.676Z,1024.9
2017-02-16T13:26:15.700Z,1024.9
2017-02-16T13:27:24.732Z,1024.88
2017-02-16T13:28:33.770Z,1024.88
2017-02-16T13:29:42.796Z,1024.84
2017-02-16T13:30:51.805Z,1024.85
2017-02-16T13:32:00.828Z,1024.86
2017-02-16T13:33:09.856Z,1024.81
2017-02-16T13:34:18.872Z,1024.83
2017-02-16T13:35:28.327Z,1024.85
2017-02-16T13:36:37.351Z,1024.82
2017-02-16T13:37:46.370Z,1024.79
2017-02-16T13:38:55.375Z,1024.79
2017-02-16T13:40:04.400Z,1024.81
2017-02-16T13:41:13.420Z,1024.79
2017-02-16T13:42:22.854Z,1024.8
2017-02-16T13:43:31.891Z,1024.71
2017-02-16T13:44:40.892Z,1024.73
2017-02-16T13:45:49.941Z,1024.72
2017-02-16T13:46:58.959Z,1024.7
2017-02-16T13:48:07.966Z,1024.7
2017-02-16T13:49:16.991Z,1024.71
2017-02-16T13:50:26.018Z,1024.66
2017-02-16T13:51:35.444Z,1024.66
2017-02-16T13:52:44.497Z,1024.65
2017-02-16T13:53:53.529Z,1024.64
2017-02-16T13:55:02.550Z,1024.65
2017-02-16T13:56:11.597Z,1024.64
2017-02-16T13:57:20.627Z,1024.61
2017-02-16T13:58:29.644Z,1024.59
2017-02-16T13:59:38.680Z,1024.55